createdAt,value
2023-09-06T00:01:19.928Z,13.95
2023-09-06T00:03:46.868Z,20.17
2023-09-06T00:06:13.685Z,19.92
2023-09-06T00:08:40.414Z,19.48
2023-09-06T00:11:07.139Z,15.05
2023-09-06T00:13:35.380Z,17.48
2023-09-06T00:16:03.429Z,16.42
2023-09-06T00:18:30.951Z,15.13
2023-09-06T00:20:58.978Z,16.20
2023-09-06T00:23:27.143Z,12.45
2023-09-06T00:25:57.390Z,14.00
2023-09-06T00:28:26.802Z,14.43
2023-09-06T00:30:58.739Z,11.75
2023-09-06T00:33:31.803Z,12.68
2023-09-06T00:35:59.289Z,15.43
2023-09-06T00:38:27.383Z,20.75
2023-09-06T00:40:54.482Z,14.43
2023-09-06T00:43:21.239Z,15.02
2023-09-06T00:45:52.164Z,16.60
2023-09-06T00:48:22.786Z,15.80
2023-09-06T00:50:52.018Z,19.70
2023-09-06T00:53:21.450Z,19.00
2023-09-06T00:55:50.086Z,18.38
2023-09-06T00:58:19.426Z,19.63
2023-09-06T01:00:48.439Z,22.42
2023-09-06T01:03:16.153Z,19.63
2023-09-06T01:05:48.537Z,18.13
2023-09-06T01:08:19.914Z,14.52
2023-09-06T01:10:46.990Z,20.15
2023-09-06T01:13:13.825Z,24.85
2023-09-06T01:15:44.816Z,18.13
2023-09-06T01:18:14.124Z,20.13
2023-09-06T01:20:54.140Z,19.90
2023-09-06T01:23:34.822Z,16.67
2023-09-06T01:26:02.563Z,13.15
2023-09-06T01:28:29.874Z,16.65
2023-09-06T01:30:58.009Z,14.85
2023-09-06T01:33:24.753Z,14.25
2023-09-06T01:35:51.940Z,14.65
2023-09-06T01:38:18.819Z,15.60
2023-09-06T01:40:45.859Z,18.55
2023-09-06T01:43:13.533Z,19.00
2023-09-06T01:45:47.123Z,23.90
2023-09-06T01:48:13.921Z,14.63
2023-09-06T01:50:42.607Z,17.92
2023-09-06T01:53:09.324Z,20.00
2023-09-06T01:55:36.124Z,16.52
2023-09-06T01:58:05.175Z,14.63
2023-09-06T02:00:33.228Z,15.85
2023-09-06T02:03:01.131Z,18.10
2023-09-06T02:05:27.981Z,18.25
2023-09-06T02:07:54.674Z,17.38
2023-09-06T02:10:22.568Z,21.17
2023-09-06T02:12:49.258Z,17.00
2023-09-06T02:15:16.301Z,24.70
2023-09-06T02:17:44.693Z,23.13
2023-09-06T02:20:18.960Z,16.67
2023-09-06T02:22:48.591Z,19.42
2023-09-06T02:25:17.072Z,20.65
2023-09-06T02:27:43.874Z,14.05
2023-09-06T02:30:10.900Z,17.92
2023-09-06T02:32:37.732Z,11.40
2023-09-06T02:35:04.738Z,12.40
2023-09-06T02:37:31.472Z,12.90
2023-09-06T02:39:58.129Z,21.55
2023-09-06T02:42:25.833Z,19.25
2023-09-06T02:44:53.188Z,17.15
2023-09-06T02:47:26.593Z,15.85
2023-09-06T02:49:57.044Z,16.33
2023-09-06T02:52:31.629Z,16.55
2023-09-06T02:54:59.421Z,15.88
2023-09-06T02:57:27.290Z,15.55
2023-09-06T02:59:55.056Z,15.50
2023-09-06T03:02:22.954Z,15.90
2023-09-06T03:04:58.806Z,20.63
2023-09-06T03:07:25.988Z,14.35
2023-09-06T03:09:52.780Z,14.35
2023-09-06T03:12:20.551Z,14.50
2023-09-06T03:14:50.931Z,15.95
2023-09-06T03:17:23.814Z,10.90
2023-09-06T03:19:54.906Z,11.73
2023-09-06T03:22:27.230Z,12.00
2023-09-06T03:24:56.482Z,17.48
2023-09-06T03:27:23.284Z,12.25
2023-09-06T03:29:52.253Z,12.63
2023-09-06T03:32:22.635Z,17.67
2023-09-06T03:34:50.767Z,12.85
2023-09-06T03:37:19.946Z,15.40
2023-09-06T03:39:48.872Z,16.33
2023-09-06T03:42:16.450Z,12.88
2023-09-06T03:44:47.742Z,15.20
2023-09-06T03:47:14.982Z,11.98
2023-09-06T03:49:42.522Z,10.50
2023-09-06T03:52:09.232Z,13.15
2023-09-06T03:54:36.042Z,15.38
2023-09-06T03:57:04.029Z,13.13
2023-09-06T03:59:36.404Z,13.60
2023-09-06T04:02:08.723Z,11.43
2023-09-06T04:04:35.922Z,15.95
2023-09-06T04:07:03.990Z,13.50
2023-09-06T04:09:38.398Z,13.68
2023-09-06T04:12:08.661Z,17.65
2023-09-06T04:14:36.948Z,13.93
2023-09-06T04:17:08.457Z,10.25
2023-09-06T04:19:36.938Z,16.23
2023-09-06T04:22:03.973Z,15.82
2023-09-06T04:24:36.302Z,11.00
2023-09-06T04:27:05.885Z,17.08
2023-09-06T04:29:33.563Z,12.98
2023-09-06T04:32:02.599Z,12.30
2023-09-06T04:34:29.292Z,16.65
2023-09-06T04:36:56.038Z,15.85
2023-09-06T04:39:24.251Z,15.38
2023-09-06T04:41:50.786Z,11.32
2023-09-06T04:44:19.054Z,11.45
2023-09-06T04:46:47.570Z,9.60
2023-09-06T04:49:14.274Z,13.82
2023-09-06T04:54:10.741Z,13.10
2023-09-06T04:56:37.559Z,13.27
2023-09-06T04:59:04.507Z,13.90
2023-09-06T05:01:31.288Z,14.73
2023-09-06T05:03:58.178Z,12.93
2023-09-06T05:06:25.082Z,15.68
2023-09-06T05:08:52.277Z,19.15
2023-09-06T05:11:22.835Z,13.25
2023-09-06T05:13:51.135Z,11.25
2023-09-06T05:16:19.281Z,15.27
2023-09-06T05:18:49.597Z,15.63
2023-09-06T05:21:18.544Z,12.60
2023-09-06T05:26:12.353Z,10.13
2023-09-06T05:28:43.860Z,13.15
2023-09-06T05:31:11.045Z,12.52
2023-09-06T05:33:40.065Z,15.70
2023-09-06T05:36:09.911Z,10.27
2023-09-06T05:38:36.646Z,10.50
2023-09-06T05:41:04.980Z,11.13
2023-09-06T05:43:37.726Z,12.90
2023-09-06T05:46:11.897Z,9.70
2023-09-06T05:48:49.402Z,8.05
2023-09-06T05:51:16.162Z,18.05
2023-09-06T05:53:43.451Z,13.43
2023-09-06T05:56:10.162Z,11.82
2023-09-06T05:58:39.173Z,9.73
2023-09-06T06:01:12.779Z,7.70
2023-09-06T06:03:39.513Z,12.63
2023-09-06T06:06:11.642Z,14.18
2023-09-06T06:08:38.723Z,25.58
2023-09-06T06:11:05.515Z,11.55
2023-09-06T06:13:32.108Z,14.60
2023-09-06T06:15:58.691Z,15.13
2023-09-06T06:18:27.426Z,12.93
2023-09-06T06:20:55.853Z,14.15
2023-09-06T06:23:22.429Z,10.93
2023-09-06T06:25:49.325Z,15.77
2023-09-06T06:28:16.794Z,23.27
2023-09-06T06:30:43.957Z,13.40
2023-09-06T06:33:10.688Z,19.55
2023-09-06T06:35:37.698Z,17.65
2023-09-06T06:38:04.511Z,22.77
2023-09-06T06:40:31.479Z,18.88
2023-09-06T06:42:58.062Z,18.20
2023-09-06T06:45:24.645Z,17.08
2023-09-06T06:47:51.190Z,15.60
2023-09-06T06:50:17.828Z,23.80
2023-09-06T06:52:47.359Z,25.95
2023-09-06T06:55:13.977Z,22.33
2023-09-06T06:57:40.589Z,22.70
2023-09-06T07:00:12.331Z,17.02
2023-09-06T07:02:39.714Z,18.63
2023-09-06T07:05:06.706Z,20.98
2023-09-06T07:07:33.300Z,33.38
2023-09-06T07:12:26.490Z,21.55
2023-09-06T07:17:19.834Z,15.23
2023-09-06T07:19:46.542Z,12.82
2023-09-06T07:22:13.124Z,13.73
2023-09-06T07:27:06.228Z,19.00
2023-09-06T07:31:59.631Z,11.80
2023-09-06T07:34:26.784Z,11.88
2023-09-06T07:36:53.380Z,23.15
2023-09-06T07:41:48.537Z,14.27
2023-09-06T07:44:15.189Z,18.25
2023-09-06T07:49:09.158Z,14.80
2023-09-06T07:51:35.846Z,10.02
2023-09-06T07:56:29.517Z,13.52
2023-09-06T07:58:56.558Z,11.90
2023-09-06T08:01:23.116Z,11.38
2023-09-06T08:03:49.703Z,13.18
2023-09-06T08:06:16.626Z,8.70
2023-09-06T08:08:44.693Z,7.78
2023-09-06T08:11:11.512Z,8.85
2023-09-06T08:13:38.685Z,8.23
2023-09-06T08:16:06.643Z,7.88
2023-09-06T08:18:33.886Z,10.45
2023-09-06T08:21:02.253Z,9.70
2023-09-06T08:23:29.176Z,7.45
2023-09-06T08:25:57.288Z,6.90
2023-09-06T08:28:23.839Z,8.20
2023-09-06T08:33:18.160Z,9.98
2023-09-06T08:35:44.994Z,8.93
2023-09-06T08:38:26.635Z,6.65
2023-09-06T08:40:53.226Z,4.78
2023-09-06T08:43:20.445Z,9.60
2023-09-06T08:45:49.530Z,6.85
2023-09-06T08:48:16.920Z,7.15
2023-09-06T08:50:46.729Z,6.60
2023-09-06T08:53:16.116Z,6.45
2023-09-06T08:55:46.207Z,5.80
2023-09-06T08:58:13.689Z,6.28
2023-09-06T09:00:40.807Z,3.65
2023-09-06T09:03:07.720Z,9.48
2023-09-06T09:05:34.650Z,6.55
2023-09-06T09:08:02.360Z,6.07
2023-09-06T09:10:33.304Z,16.17
2023-09-06T09:13:01.338Z,6.57
2023-09-06T09:15:31.246Z,6.03
2023-09-06T09:18:01.629Z,3.75
2023-09-06T09:20:31.831Z,4.18
2023-09-06T09:23:04.454Z,7.38
2023-09-06T09:25:33.627Z,5.60
2023-09-06T09:28:00.826Z,5.20
2023-09-06T09:30:32.569Z,6.68
2023-09-06T09:33:02.671Z,5.65
2023-09-06T09:35:32.483Z,5.25
2023-09-06T09:38:00.982Z,5.93
2023-09-06T09:40:46.064Z,5.78
2023-09-06T09:43:18.702Z,4.70
2023-09-06T09:45:47.157Z,6.57
2023-09-06T09:48:16.684Z,9.10
2023-09-06T09:50:45.258Z,6.38
2023-09-06T09:55:48.573Z,9.13
2023-09-06T09:58:17.075Z,3.58
2023-09-06T10:00:44.167Z,7.63
2023-09-06T10:03:11.459Z,7.88
2023-09-06T10:05:39.341Z,4.72
2023-09-06T10:08:10.379Z,5.85
2023-09-06T10:10:41.541Z,5.72
2023-09-06T10:13:11.574Z,4.75
2023-09-06T10:15:39.155Z,4.32
2023-09-06T10:18:07.706Z,3.67
2023-09-06T10:20:36.665Z,6.28
2023-09-06T10:23:07.045Z,3.08
2023-09-06T10:25:41.026Z,3.40
2023-09-06T10:28:08.866Z,5.47
2023-09-06T10:30:48.155Z,5.03
2023-09-06T10:33:30.106Z,17.80
2023-09-06T10:36:04.686Z,4.00
2023-09-06T10:38:36.685Z,3.47
2023-09-06T10:41:03.187Z,6.15
2023-09-06T10:43:43.041Z,5.70
2023-09-06T10:46:09.649Z,3.83
2023-09-06T10:48:36.605Z,3.45
2023-09-06T10:51:14.223Z,6.60
2023-09-06T10:53:48.525Z,8.13
2023-09-06T10:56:27.463Z,2.63
2023-09-06T10:58:57.558Z,8.30
2023-09-06T11:01:24.113Z,3.60
2023-09-06T11:03:53.633Z,5.10
2023-09-06T11:06:20.312Z,5.45
2023-09-06T11:08:48.342Z,5.97
2023-09-06T11:11:15.508Z,4.25
2023-09-06T11:13:45.945Z,4.38
2023-09-06T11:16:17.247Z,6.93
2023-09-06T11:18:48.471Z,4.72
2023-09-06T11:21:24.047Z,9.73
2023-09-06T11:23:52.677Z,5.82
2023-09-06T11:26:20.382Z,4.22
2023-09-06T11:28:50.262Z,5.53
2023-09-06T11:31:26.437Z,3.72
2023-09-06T11:33:57.122Z,3.47
2023-09-06T11:36:29.580Z,4.18
2023-09-06T11:38:58.671Z,2.60
2023-09-06T11:41:25.777Z,2.67
2023-09-06T11:43:57.403Z,2.80
2023-09-06T11:46:25.833Z,4.57
2023-09-06T11:48:54.447Z,9.65
2023-09-06T11:51:23.351Z,3.25
2023-09-06T11:53:55.375Z,3.70
2023-09-06T11:56:31.741Z,7.40
2023-09-06T11:59:01.007Z,1.83
2023-09-06T12:01:28.204Z,5.15
2023-09-06T12:03:57.992Z,3.30
2023-09-06T12:06:27.175Z,4.13
2023-09-06T12:08:53.971Z,2.85
2023-09-06T12:11:22.973Z,3.50
2023-09-06T12:13:49.812Z,2.53
2023-09-06T12:16:17.291Z,4.65
2023-09-06T12:18:45.759Z,3.88
2023-09-06T12:21:12.760Z,6.65
2023-09-06T12:23:39.420Z,2.47
2023-09-06T12:26:06.766Z,4.88
2023-09-06T12:28:33.938Z,2.50
2023-09-06T12:31:09.874Z,6.13
2023-09-06T12:33:39.311Z,8.00
2023-09-06T12:36:07.093Z,25.00
2023-09-06T12:38:33.816Z,3.65
2023-09-06T12:41:01.932Z,2.22
2023-09-06T12:43:30.416Z,5.38
2023-09-06T12:45:58.518Z,4.10
2023-09-06T12:48:26.098Z,5.18
2023-09-06T12:50:54.843Z,7.30
2023-09-06T12:53:23.998Z,4.43
2023-09-06T12:55:50.511Z,7.47
2023-09-06T12:58:17.102Z,3.33
2023-09-06T13:00:43.578Z,2.00
2023-09-06T13:03:10.410Z,4.32
2023-09-06T13:05:40.990Z,2.28
2023-09-06T13:08:08.006Z,6.43
2023-09-06T13:10:34.525Z,3.05
2023-09-06T13:13:01.150Z,9.90
2023-09-06T13:15:27.661Z,3.67
2023-09-06T13:17:54.260Z,10.38
2023-09-06T13:20:20.818Z,3.00
2023-09-06T13:22:47.318Z,6.35
2023-09-06T13:25:14.177Z,3.17
2023-09-06T13:27:40.926Z,2.85
2023-09-06T13:30:07.996Z,4.03
2023-09-06T13:32:35.083Z,4.25
2023-09-06T13:35:02.348Z,5.65
2023-09-06T13:37:28.936Z,2.90
2023-09-06T13:39:55.459Z,4.72
2023-09-06T13:42:22.098Z,4.80
2023-09-06T13:44:48.612Z,5.57
2023-09-06T13:47:17.380Z,2.47
2023-09-06T13:49:44.331Z,4.57
2023-09-06T13:52:12.816Z,2.00
2023-09-06T13:54:40.650Z,3.83
2023-09-06T13:57:08.349Z,2.67
2023-09-06T13:59:35.033Z,3.50
2023-09-06T14:02:01.642Z,5.43
2023-09-06T14:04:28.353Z,4.35
2023-09-06T14:06:55.625Z,3.85
2023-09-06T14:09:23.835Z,9.43
2023-09-06T14:11:50.884Z,3.38
2023-09-06T14:14:18.294Z,2.03
2023-09-06T14:16:46.051Z,11.48
2023-09-06T14:19:12.854Z,5.05
2023-09-06T14:21:46.353Z,6.20
2023-09-06T14:24:17.093Z,7.05
2023-09-06T14:26:44.533Z,2.17
2023-09-06T14:29:15.344Z,6.82
2023-09-06T14:31:42.297Z,3.05
2023-09-06T14:34:09.123Z,2.67
2023-09-06T14:36:36.127Z,2.22
2023-09-06T14:39:05.064Z,7.40
2023-09-06T14:41:33.931Z,3.88
2023-09-06T14:44:00.612Z,3.63
2023-09-06T14:46:27.251Z,6.57
2023-09-06T14:48:54.111Z,4.40
2023-09-06T14:51:20.693Z,2.95
2023-09-06T14:53:47.355Z,6.10
2023-09-06T14:56:16.190Z,5.28
2023-09-06T14:58:43.225Z,7.40
2023-09-06T15:01:09.931Z,2.35
2023-09-06T15:03:36.685Z,5.30
2023-09-06T15:06:06.535Z,3.63
2023-09-06T15:08:33.445Z,4.45
2023-09-06T15:11:00.264Z,3.83
2023-09-06T15:13:27.297Z,4.40
2023-09-06T15:15:54.048Z,6.13
2023-09-06T15:18:20.703Z,2.78
2023-09-06T15:20:47.781Z,6.72
2023-09-06T15:23:15.223Z,3.03
2023-09-06T15:25:42.107Z,6.45
2023-09-06T15:28:08.878Z,8.52
2023-09-06T15:30:35.852Z,4.00
2023-09-06T15:33:03.365Z,7.40
2023-09-06T15:35:30.192Z,5.20
2023-09-06T15:38:12.913Z,2.80
2023-09-06T15:40:39.879Z,3.03
2023-09-06T15:43:06.795Z,6.25
2023-09-06T15:45:33.906Z,5.80
2023-09-06T15:48:00.918Z,4.82
2023-09-06T15:50:29.412Z,5.03
2023-09-06T15:52:56.483Z,3.65
2023-09-06T15:55:23.869Z,6.82
2023-09-06T15:57:51.232Z,10.05
2023-09-06T16:00:30.739Z,9.85
2023-09-06T16:02:59.156Z,10.60
2023-09-06T16:05:26.499Z,8.90
2023-09-06T16:07:54.545Z,4.20
2023-09-06T16:10:21.360Z,5.90
2023-09-06T16:12:49.837Z,6.15
2023-09-06T16:15:17.709Z,17.15
2023-09-06T16:17:46.043Z,5.57
2023-09-06T16:20:13.135Z,12.70
2023-09-06T16:22:39.706Z,4.97
2023-09-06T16:25:08.695Z,8.98
2023-09-06T16:27:35.575Z,3.90
2023-09-06T16:30:06.715Z,7.90
2023-09-06T16:32:33.818Z,3.63
2023-09-06T16:35:01.144Z,7.13
2023-09-06T16:37:27.669Z,5.85
2023-09-06T16:39:54.343Z,6.03
2023-09-06T16:42:22.287Z,3.72
2023-09-06T16:44:48.870Z,34.00
2023-09-06T16:49:48.174Z,19.13
2023-09-06T16:52:15.398Z,11.45
2023-09-06T16:54:42.013Z,14.85
2023-09-06T16:59:35.104Z,32.55
2023-09-06T17:02:01.662Z,15.02
2023-09-06T17:06:54.828Z,17.63
2023-09-06T17:09:21.321Z,15.80
2023-09-06T17:14:14.292Z,12.27
2023-09-06T17:19:10.450Z,22.70
2023-09-06T17:21:40.064Z,20.08
2023-09-06T17:24:09.362Z,18.77
2023-09-06T17:26:40.907Z,23.35
2023-09-06T17:29:07.601Z,35.05
2023-09-06T17:31:37.694Z,47.10
2023-09-06T17:34:04.464Z,26.67
2023-09-06T17:38:57.575Z,25.17
2023-09-06T17:41:24.609Z,10.05
2023-09-06T17:43:52.199Z,14.20
2023-09-06T17:46:25.284Z,6.53
2023-09-06T17:48:54.218Z,6.53
2023-09-06T17:51:21.464Z,12.63
2023-09-06T17:53:48.712Z,24.80
2023-09-06T17:56:17.510Z,17.98
2023-09-06T17:58:45.819Z,18.20
2023-09-06T18:01:15.151Z,10.70
2023-09-06T18:03:44.768Z,25.15
2023-09-06T18:06:14.780Z,14.02
2023-09-06T18:08:43.302Z,7.63
2023-09-06T18:11:10.602Z,11.50
2023-09-06T18:13:41.489Z,4.25
2023-09-06T18:16:12.129Z,26.60
2023-09-06T18:18:39.330Z,6.93
2023-09-06T18:21:10.235Z,7.80
2023-09-06T18:23:40.862Z,8.82
2023-09-06T18:26:11.668Z,9.95
2023-09-06T18:28:38.399Z,16.08
2023-09-06T18:31:05.568Z,10.25
2023-09-06T18:33:32.359Z,6.22
2023-09-06T18:35:58.964Z,11.02
2023-09-06T18:40:57.376Z,12.52
2023-09-06T18:43:24.337Z,18.38
2023-09-06T18:45:51.773Z,8.02
2023-09-06T18:48:21.246Z,7.43
2023-09-06T18:50:48.974Z,10.73
2023-09-06T18:53:15.529Z,12.57
2023-09-06T18:55:45.575Z,11.73
2023-09-06T18:58:12.716Z,6.68
2023-09-06T19:00:42.775Z,10.95
2023-09-06T19:03:13.866Z,8.20
2023-09-06T19:05:42.310Z,9.95
2023-09-06T19:08:15.367Z,6.93
2023-09-06T19:10:43.258Z,8.38
2023-09-06T19:13:11.470Z,9.32
2023-09-06T19:15:38.432Z,5.95
2023-09-06T19:18:07.175Z,4.78
2023-09-06T19:20:34.196Z,10.73
2023-09-06T19:23:00.797Z,9.35
2023-09-06T19:25:28.535Z,10.60
2023-09-06T19:27:55.538Z,6.45
2023-09-06T19:30:22.388Z,8.43
2023-09-06T19:32:49.166Z,7.93
2023-09-06T19:35:15.914Z,4.80
2023-09-06T19:37:42.462Z,8.68
2023-09-06T19:42:36.410Z,10.20
2023-09-06T19:45:03.271Z,8.50
2023-09-06T19:47:29.931Z,6.57
2023-09-06T19:49:57.126Z,4.50
2023-09-06T19:52:23.957Z,11.32
2023-09-06T19:54:50.611Z,8.10
2023-09-06T19:57:18.176Z,5.78
2023-09-06T19:59:44.756Z,4.88
2023-09-06T20:04:38.488Z,8.25
2023-09-06T20:07:05.550Z,5.45
2023-09-06T20:09:32.342Z,6.20
2023-09-06T20:11:59.138Z,5.28
2023-09-06T20:14:28.873Z,7.72
2023-09-06T20:16:58.736Z,8.02
2023-09-06T20:19:25.528Z,11.55
2023-09-06T20:21:52.042Z,10.43
2023-09-06T20:26:45.255Z,12.73
2023-09-06T20:29:11.943Z,7.40
2023-09-06T20:31:38.778Z,4.78
2023-09-06T20:34:05.526Z,7.28
2023-09-06T20:36:33.749Z,10.30
2023-09-06T20:39:00.561Z,6.88
2023-09-06T20:41:27.225Z,16.70
2023-09-06T20:43:53.842Z,21.38
2023-09-06T20:48:47.399Z,14.27
2023-09-06T20:51:17.060Z,9.65
2023-09-06T20:53:44.542Z,10.50
2023-09-06T20:56:11.869Z,11.13
2023-09-06T20:58:38.957Z,9.90
2023-09-06T21:01:16.496Z,12.77
2023-09-06T21:03:43.316Z,11.65
2023-09-06T21:06:12.059Z,15.30
2023-09-06T21:08:39.208Z,16.33
2023-09-06T21:11:06.205Z,17.77
2023-09-06T21:13:34.118Z,13.63
2023-09-06T21:16:05.890Z,14.30
2023-09-06T21:18:33.184Z,15.02
2023-09-06T21:21:00.233Z,13.70
2023-09-06T21:23:26.952Z,14.07
2023-09-06T21:25:53.489Z,23.45
2023-09-06T21:30:48.121Z,12.63
2023-09-06T21:33:14.941Z,10.73
2023-09-06T21:35:43.555Z,12.10
2023-09-06T21:38:11.393Z,15.40
2023-09-06T21:40:42.790Z,15.82
2023-09-06T21:43:17.746Z,12.35
2023-09-06T21:45:46.283Z,11.95
2023-09-06T21:48:13.726Z,16.38
2023-09-06T21:50:42.232Z,18.67
2023-09-06T21:53:09.563Z,14.32
2023-09-06T21:55:36.379Z,14.13
2023-09-06T21:58:10.640Z,11.90
2023-09-06T22:18:05.400Z,9.32
2023-09-06T22:20:34.485Z,10.80
2023-09-06T22:23:01.590Z,9.20
2023-09-06T22:25:28.677Z,9.85
2023-09-06T22:27:58.298Z,18.95
2023-09-06T22:30:25.149Z,11.73
2023-09-06T22:35:18.282Z,17.35
2023-09-06T22:40:11.944Z,17.48
2023-09-06T22:42:38.561Z,14.18
2023-09-06T22:45:05.703Z,12.70
2023-09-06T22:47:32.394Z,15.27
2023-09-06T22:49:59.070Z,14.27
2023-09-06T22:54:52.461Z,12.80
2023-09-06T22:57:19.158Z,12.10
2023-09-06T22:59:45.745Z,18.60
2023-09-06T23:04:40.510Z,14.82
2023-09-06T23:07:07.879Z,13.80
2023-09-06T23:09:34.577Z,9.65
2023-09-06T23:12:02.451Z,11.43
2023-09-06T23:14:29.153Z,11.80
2023-09-06T23:16:55.884Z,10.68
2023-09-06T23:19:28.401Z,11.73
2023-09-06T23:21:59.428Z,14.95
2023-09-06T23:24:28.778Z,16.75
2023-09-06T23:27:00.313Z,17.30
2023-09-06T23:29:35.854Z,12.13
2023-09-06T23:32:05.977Z,14.10
2023-09-06T23:34:35.344Z,14.35
2023-09-06T23:37:05.391Z,19.02
2023-09-06T23:39:34.477Z,13.10
2023-09-06T23:42:10.761Z,10.43
2023-09-06T23:44:42.011Z,12.15
2023-09-06T23:47:10.944Z,11.05
2023-09-06T23:49:38.259Z,9.82
2023-09-06T23:52:05.499Z,12.98
2023-09-06T23:54:44.792Z,12.15
2023-09-06T23:57:14.237Z,12.20
